sensor_id;sensor_type;location;lat;lon;timestamp;P1;durP1;ratioP1;P2;durP2;ratioP2
12968;SDS011;6549;53.128;8.182;2023-04-16T00:00:02;40.50;;;28.17;;
12968;SDS011;6549;53.128;8.182;2023-04-16T00:03:03;36.08;;;25.35;;
12968;SDS011;6549;53.128;8.182;2023-04-16T00:06:04;37.90;;;25.75;;
12968;SDS011;6549;53.128;8.182;2023-04-16T00:09:04;36.63;;;26.40;;
12968;SDS011;6549;53.128;8.182;2023-04-16T00:12:05;38.38;;;26.58;;
12968;SDS011;6549;53.128;8.182;2023-04-16T00:15:05;37.90;;;25.90;;
12968;SDS011;6549;53.128;8.182;2023-04-16T00:18:06;41.35;;;27.38;;
12968;SDS011;6549;53.128;8.182;2023-04-16T00:21:06;39.20;;;26.73;;
12968;SDS011;6549;53.128;8.182;2023-04-16T00:24:06;42.13;;;27.52;;
12968;SDS011;6549;53.128;8.182;2023-04-16T00:27:07;40.92;;;27.48;;
12968;SDS011;6549;53.128;8.182;2023-04-16T00:30:07;40.10;;;27.35;;
12968;SDS011;6549;53.128;8.182;2023-04-16T00:33:08;38.22;;;26.52;;
12968;SDS011;6549;53.128;8.182;2023-04-16T00:36:08;35.15;;;25.92;;
12968;SDS011;6549;53.128;8.182;2023-04-16T00:39:09;33.55;;;24.10;;
12968;SDS011;6549;53.128;8.182;2023-04-16T00:42:09;38.80;;;25.90;;
12968;SDS011;6549;53.128;8.182;2023-04-16T00:45:10;39.05;;;27.20;;
12968;SDS011;6549;53.128;8.182;2023-04-16T00:48:10;32.97;;;24.15;;
12968;SDS011;6549;53.128;8.182;2023-04-16T00:51:11;37.95;;;25.85;;
12968;SDS011;6549;53.128;8.182;2023-04-16T00:54:11;36.75;;;24.95;;
12968;SDS011;6549;53.128;8.182;2023-04-16T00:57:12;37.45;;;27.50;;
12968;SDS011;6549;53.128;8.182;2023-04-16T01:00:13;33.25;;;24.25;;
12968;SDS011;6549;53.128;8.182;2023-04-16T01:03:13;42.90;;;26.13;;
12968;SDS011;6549;53.128;8.182;2023-04-16T01:06:17;42.92;;;26.95;;
12968;SDS011;6549;53.128;8.182;2023-04-16T01:09:18;33.92;;;23.77;;
12968;SDS011;6549;53.128;8.182;2023-04-16T01:12:18;37.58;;;25.30;;
12968;SDS011;6549;53.128;8.182;2023-04-16T01:15:18;37.50;;;26.25;;
12968;SDS011;6549;53.128;8.182;2023-04-16T01:18:19;38.60;;;25.33;;
12968;SDS011;6549;53.128;8.182;2023-04-16T01:21:20;38.78;;;26.25;;
12968;SDS011;6549;53.128;8.182;2023-04-16T01:24:21;35.25;;;24.67;;
12968;SDS011;6549;53.128;8.182;2023-04-16T01:27:21;36.22;;;25.23;;
12968;SDS011;6549;53.128;8.182;2023-04-16T01:30:21;40.08;;;26.17;;
12968;SDS011;6549;53.128;8.182;2023-04-16T01:33:21;36.17;;;25.13;;
12968;SDS011;6549;53.128;8.182;2023-04-16T01:36:22;42.22;;;25.90;;
12968;SDS011;6549;53.128;8.182;2023-04-16T01:39:22;39.70;;;25.17;;
12968;SDS011;6549;53.128;8.182;2023-04-16T01:42:25;39.20;;;26.40;;
12968;SDS011;6549;53.128;8.182;2023-04-16T01:45:27;34.45;;;24.92;;
12968;SDS011;6549;53.128;8.182;2023-04-16T01:48:27;34.70;;;24.42;;
12968;SDS011;6549;53.128;8.182;2023-04-16T01:51:27;35.85;;;24.40;;
12968;SDS011;6549;53.128;8.182;2023-04-16T01:54:28;36.50;;;24.85;;
12968;SDS011;6549;53.128;8.182;2023-04-16T01:57:28;40.40;;;24.98;;
12968;SDS011;6549;53.128;8.182;2023-04-16T02:00:28;35.03;;;23.65;;
12968;SDS011;6549;53.128;8.182;2023-04-16T02:03:29;39.50;;;24.95;;
12968;SDS011;6549;53.128;8.182;2023-04-16T02:06:30;39.55;;;25.20;;
12968;SDS011;6549;53.128;8.182;2023-04-16T02:09:32;32.50;;;22.77;;
12968;SDS011;6549;53.128;8.182;2023-04-16T02:12:34;35.35;;;23.35;;
12968;SDS011;6549;53.128;8.182;2023-04-16T02:15:35;35.30;;;24.00;;
12968;SDS011;6549;53.128;8.182;2023-04-16T02:18:35;39.33;;;25.27;;
12968;SDS011;6549;53.128;8.182;2023-04-16T02:21:35;34.78;;;24.95;;
12968;SDS011;6549;53.128;8.182;2023-04-16T02:24:36;33.90;;;24.35;;
12968;SDS011;6549;53.128;8.182;2023-04-16T02:27:36;38.55;;;25.45;;
12968;SDS011;6549;53.128;8.182;2023-04-16T02:30:37;31.30;;;22.17;;
12968;SDS011;6549;53.128;8.182;2023-04-16T02:33:38;33.42;;;23.70;;
12968;SDS011;6549;53.128;8.182;2023-04-16T02:36:38;30.42;;;22.02;;
12968;SDS011;6549;53.128;8.182;2023-04-16T02:39:39;33.67;;;22.20;;
12968;SDS011;6549;53.128;8.182;2023-04-16T02:42:39;34.90;;;23.95;;
12968;SDS011;6549;53.128;8.182;2023-04-16T02:45:40;33.17;;;23.17;;
12968;SDS011;6549;53.128;8.182;2023-04-16T02:48:40;36.20;;;23.65;;
12968;SDS011;6549;53.128;8.182;2023-04-16T02:51:40;39.55;;;25.08;;
12968;SDS011;6549;53.128;8.182;2023-04-16T02:54:41;36.05;;;23.15;;
12968;SDS011;6549;53.128;8.182;2023-04-16T02:57:41;37.28;;;24.88;;
12968;SDS011;6549;53.128;8.182;2023-04-16T03:00:41;31.88;;;23.88;;
12968;SDS011;6549;53.128;8.182;2023-04-16T03:03:42;35.13;;;22.42;;
12968;SDS011;6549;53.128;8.182;2023-04-16T03:06:42;34.55;;;24.70;;
12968;SDS011;6549;53.128;8.182;2023-04-16T03:09:42;36.25;;;24.02;;
12968;SDS011;6549;53.128;8.182;2023-04-16T03:12:43;32.60;;;22.63;;
12968;SDS011;6549;53.128;8.182;2023-04-16T03:15:47;36.45;;;25.23;;
12968;SDS011;6549;53.128;8.182;2023-04-16T03:18:48;37.42;;;24.17;;
12968;SDS011;6549;53.128;8.182;2023-04-16T03:21:48;33.22;;;23.08;;
12968;SDS011;6549;53.128;8.182;2023-04-16T03:24:48;34.47;;;24.27;;
12968;SDS011;6549;53.128;8.182;2023-04-16T03:27:49;36.28;;;23.60;;
12968;SDS011;6549;53.128;8.182;2023-04-16T03:30:50;38.22;;;25.17;;
12968;SDS011;6549;53.128;8.182;2023-04-16T03:33:52;36.65;;;24.02;;
12968;SDS011;6549;53.128;8.182;2023-04-16T03:36:53;36.55;;;24.63;;
12968;SDS011;6549;53.128;8.182;2023-04-16T03:39:53;36.45;;;24.75;;
12968;SDS011;6549;53.128;8.182;2023-04-16T03:42:53;36.25;;;24.63;;
12968;SDS011;6549;53.128;8.182;2023-04-16T03:45:53;33.25;;;24.40;;
12968;SDS011;6549;53.128;8.182;2023-04-16T03:48:54;35.53;;;25.30;;
12968;SDS011;6549;53.128;8.182;2023-04-16T03:51:54;36.97;;;24.58;;
12968;SDS011;6549;53.128;8.182;2023-04-16T03:54:54;36.05;;;25.00;;
12968;SDS011;6549;53.128;8.182;2023-04-16T03:57:55;37.47;;;25.52;;
12968;SDS011;6549;53.128;8.182;2023-04-16T04:00:56;38.72;;;26.65;;
12968;SDS011;6549;53.128;8.182;2023-04-16T04:03:56;35.85;;;25.23;;
12968;SDS011;6549;53.128;8.182;2023-04-16T04:06:57;39.35;;;26.70;;
12968;SDS011;6549;53.128;8.182;2023-04-16T04:09:57;35.50;;;24.83;;
12968;SDS011;6549;53.128;8.182;2023-04-16T04:12:57;34.47;;;24.50;;
12968;SDS011;6549;53.128;8.182;2023-04-16T04:15:58;35.60;;;24.20;;
12968;SDS011;6549;53.128;8.182;2023-04-16T04:18:58;31.83;;;21.98;;
12968;SDS011;6549;53.128;8.182;2023-04-16T04:21:59;36.25;;;24.83;;
12968;SDS011;6549;53.128;8.182;2023-04-16T04:24:59;31.77;;;22.50;;
12968;SDS011;6549;53.128;8.182;2023-04-16T04:28:00;36.00;;;25.50;;
12968;SDS011;6549;53.128;8.182;2023-04-16T04:31:00;33.55;;;24.73;;
12968;SDS011;6549;53.128;8.182;2023-04-16T04:34:01;38.83;;;24.95;;
12968;SDS011;6549;53.128;8.182;2023-04-16T04:37:01;39.58;;;24.92;;
12968;SDS011;6549;53.128;8.182;2023-04-16T04:40:01;32.08;;;22.90;;
12968;SDS011;6549;53.128;8.182;2023-04-16T04:43:02;35.90;;;25.33;;
12968;SDS011;6549;53.128;8.182;2023-04-16T04:46:02;35.72;;;24.33;;
12968;SDS011;6549;53.128;8.182;2023-04-16T04:49:03;34.08;;;23.80;;
12968;SDS011;6549;53.128;8.182;2023-04-16T04:52:03;38.20;;;25.70;;
12968;SDS011;6549;53.128;8.182;2023-04-16T04:55:04;36.08;;;24.42;;
12968;SDS011;6549;53.128;8.182;2023-04-16T04:58:05;36.75;;;25.40;;
12968;SDS011;6549;53.128;8.182;2023-04-16T05:01:06;34.03;;;24.08;;
12968;SDS011;6549;53.128;8.182;2023-04-16T05:04:06;35.38;;;23.55;;
12968;SDS011;6549;53.128;8.182;2023-04-16T05:07:06;34.25;;;24.70;;
12968;SDS011;6549;53.128;8.182;2023-04-16T05:10:07;33.00;;;24.13;;
12968;SDS011;6549;53.128;8.182;2023-04-16T05:13:08;33.92;;;23.65;;
12968;SDS011;6549;53.128;8.182;2023-04-16T05:16:08;34.42;;;24.73;;
12968;SDS011;6549;53.128;8.182;2023-04-16T05:19:08;36.95;;;23.27;;
12968;SDS011;6549;53.128;8.182;2023-04-16T05:22:09;33.28;;;24.08;;
12968;SDS011;6549;53.128;8.182;2023-04-16T05:25:09;33.22;;;24.35;;
12968;SDS011;6549;53.128;8.182;2023-04-16T05:28:10;33.90;;;23.77;;
12968;SDS011;6549;53.128;8.182;2023-04-16T05:31:10;40.83;;;26.10;;
12968;SDS011;6549;53.128;8.182;2023-04-16T05:34:10;32.92;;;22.75;;
12968;SDS011;6549;53.128;8.182;2023-04-16T05:37:11;31.45;;;22.98;;
12968;SDS011;6549;53.128;8.182;2023-04-16T05:40:12;33.58;;;22.77;;
12968;SDS011;6549;53.128;8.182;2023-04-16T05:43:13;32.63;;;23.60;;
12968;SDS011;6549;53.128;8.182;2023-04-16T05:46:13;29.17;;;20.88;;
12968;SDS011;6549;53.128;8.182;2023-04-16T05:49:14;34.58;;;22.23;;
12968;SDS011;6549;53.128;8.182;2023-04-16T05:52:15;29.17;;;21.57;;
12968;SDS011;6549;53.128;8.182;2023-04-16T05:55:16;31.63;;;20.70;;
12968;SDS011;6549;53.128;8.182;2023-04-16T05:58:16;28.65;;;20.73;;
12968;SDS011;6549;53.128;8.182;2023-04-16T06:01:16;30.58;;;21.50;;
12968;SDS011;6549;53.128;8.182;2023-04-16T06:04:17;25.38;;;19.30;;
12968;SDS011;6549;53.128;8.182;2023-04-16T06:07:17;26.48;;;19.33;;
12968;SDS011;6549;53.128;8.182;2023-04-16T06:10:17;29.23;;;20.08;;
12968;SDS011;6549;53.128;8.182;2023-04-16T06:13:18;30.63;;;20.23;;
12968;SDS011;6549;53.128;8.182;2023-04-16T06:16:18;28.63;;;20.05;;
12968;SDS011;6549;53.128;8.182;2023-04-16T06:19:18;27.05;;;19.98;;
12968;SDS011;6549;53.128;8.182;2023-04-16T06:22:19;27.45;;;18.60;;
12968;SDS011;6549;53.128;8.182;2023-04-16T06:25:19;26.42;;;19.17;;
12968;SDS011;6549;53.128;8.182;2023-04-16T06:28:20;29.23;;;19.38;;
12968;SDS011;6549;53.128;8.182;2023-04-16T06:31:21;26.33;;;18.23;;
12968;SDS011;6549;53.128;8.182;2023-04-16T06:34:21;27.48;;;18.58;;
12968;SDS011;6549;53.128;8.182;2023-04-16T06:37:21;29.45;;;18.92;;
12968;SDS011;6549;53.128;8.182;2023-04-16T06:40:22;25.73;;;18.42;;
12968;SDS011;6549;53.128;8.182;2023-04-16T06:43:22;26.60;;;19.08;;
12968;SDS011;6549;53.128;8.182;2023-04-16T06:46:23;29.27;;;19.35;;
12968;SDS011;6549;53.128;8.182;2023-04-16T06:49:23;25.33;;;19.02;;
12968;SDS011;6549;53.128;8.182;2023-04-16T06:52:23;26.77;;;18.98;;
12968;SDS011;6549;53.128;8.182;2023-04-16T06:55:24;28.13;;;18.90;;
12968;SDS011;6549;53.128;8.182;2023-04-16T06:58:24;29.13;;;18.92;;
12968;SDS011;6549;53.128;8.182;2023-04-16T07:01:25;29.98;;;18.50;;
12968;SDS011;6549;53.128;8.182;2023-04-16T07:04:26;25.75;;;19.02;;
12968;SDS011;6549;53.128;8.182;2023-04-16T07:07:26;28.50;;;18.63;;
12968;SDS011;6549;53.128;8.182;2023-04-16T07:10:26;28.70;;;18.98;;
12968;SDS011;6549;53.128;8.182;2023-04-16T07:13:27;26.30;;;19.25;;
12968;SDS011;6549;53.128;8.182;2023-04-16T07:16:27;26.00;;;18.48;;
12968;SDS011;6549;53.128;8.182;2023-04-16T07:19:27;26.73;;;18.73;;
12968;SDS011;6549;53.128;8.182;2023-04-16T07:22:31;25.98;;;18.52;;
12968;SDS011;6549;53.128;8.182;2023-04-16T07:25:31;25.98;;;18.48;;
12968;SDS011;6549;53.128;8.182;2023-04-16T07:28:32;22.10;;;17.10;;
12968;SDS011;6549;53.128;8.182;2023-04-16T07:31:32;25.95;;;18.17;;
12968;SDS011;6549;53.128;8.182;2023-04-16T07:34:32;26.60;;;18.27;;
12968;SDS011;6549;53.128;8.182;2023-04-16T07:37:33;24.48;;;18.52;;
12968;SDS011;6549;53.128;8.182;2023-04-16T07:40:33;26.70;;;18.08;;
12968;SDS011;6549;53.128;8.182;2023-04-16T07:43:34;24.92;;;17.58;;
12968;SDS011;6549;53.128;8.182;2023-04-16T07:46:34;24.15;;;17.45;;
12968;SDS011;6549;53.128;8.182;2023-04-16T07:49:35;25.27;;;18.33;;
12968;SDS011;6549;53.128;8.182;2023-04-16T07:52:35;26.00;;;18.60;;
12968;SDS011;6549;53.128;8.182;2023-04-16T07:55:37;23.30;;;16.92;;
12968;SDS011;6549;53.128;8.182;2023-04-16T07:58:38;26.52;;;18.80;;
12968;SDS011;6549;53.128;8.182;2023-04-16T08:01:38;26.60;;;17.90;;
12968;SDS011;6549;53.128;8.182;2023-04-16T08:04:39;24.98;;;16.98;;
12968;SDS011;6549;53.128;8.182;2023-04-16T08:07:40;26.13;;;17.67;;
12968;SDS011;6549;53.128;8.182;2023-04-16T08:10:41;25.33;;;18.40;;
12968;SDS011;6549;53.128;8.182;2023-04-16T08:13:41;22.50;;;17.10;;
12968;SDS011;6549;53.128;8.182;2023-04-16T08:16:41;26.25;;;17.73;;
12968;SDS011;6549;53.128;8.182;2023-04-16T08:19:42;23.75;;;17.42;;
12968;SDS011;6549;53.128;8.182;2023-04-16T08:22:44;23.13;;;16.63;;
12968;SDS011;6549;53.128;8.182;2023-04-16T08:25:46;22.65;;;16.70;;
12968;SDS011;6549;53.128;8.182;2023-04-16T08:28:46;27.30;;;17.67;;
12968;SDS011;6549;53.128;8.182;2023-04-16T08:31:46;26.80;;;18.00;;
12968;SDS011;6549;53.128;8.182;2023-04-16T08:34:47;22.58;;;16.92;;
12968;SDS011;6549;53.128;8.182;2023-04-16T08:37:47;26.67;;;17.27;;
12968;SDS011;6549;53.128;8.182;2023-04-16T08:40:47;27.25;;;17.30;;
12968;SDS011;6549;53.128;8.182;2023-04-16T08:43:49;23.45;;;16.05;;
12968;SDS011;6549;53.128;8.182;2023-04-16T08:46:53;23.85;;;17.15;;
12968;SDS011;6549;53.128;8.182;2023-04-16T08:49:57;23.30;;;16.63;;
12968;SDS011;6549;53.128;8.182;2023-04-16T08:53:02;23.50;;;16.30;;
12968;SDS011;6549;53.128;8.182;2023-04-16T08:56:06;28.30;;;18.38;;
12968;SDS011;6549;53.128;8.182;2023-04-16T08:59:10;24.13;;;16.95;;
12968;SDS011;6549;53.128;8.182;2023-04-16T09:02:11;22.67;;;16.45;;
12968;SDS011;6549;53.128;8.182;2023-04-16T09:05:13;26.90;;;16.50;;
12968;SDS011;6549;53.128;8.182;2023-04-16T09:08:19;24.83;;;16.92;;
12968;SDS011;6549;53.128;8.182;2023-04-16T09:11:20;22.30;;;15.82;;
12968;SDS011;6549;53.128;8.182;2023-04-16T09:14:20;22.08;;;16.77;;
12968;SDS011;6549;53.128;8.182;2023-04-16T09:17:21;23.10;;;15.68;;
12968;SDS011;6549;53.128;8.182;2023-04-16T09:20:21;20.08;;;14.98;;
12968;SDS011;6549;53.128;8.182;2023-04-16T09:23:22;22.95;;;15.35;;
12968;SDS011;6549;53.128;8.182;2023-04-16T09:26:23;20.13;;;15.52;;
12968;SDS011;6549;53.128;8.182;2023-04-16T09:29:35;23.90;;;15.52;;
12968;SDS011;6549;53.128;8.182;2023-04-16T09:32:39;21.83;;;15.23;;
12968;SDS011;6549;53.128;8.182;2023-04-16T09:35:47;23.75;;;15.77;;
12968;SDS011;6549;53.128;8.182;2023-04-16T09:38:49;19.92;;;14.68;;
12968;SDS011;6549;53.128;8.182;2023-04-16T09:41:51;22.60;;;15.48;;
12968;SDS011;6549;53.128;8.182;2023-04-16T09:44:53;24.33;;;15.38;;
12968;SDS011;6549;53.128;8.182;2023-04-16T09:47:56;21.60;;;15.15;;
12968;SDS011;6549;53.128;8.182;2023-04-16T09:51:03;20.35;;;15.27;;
12968;SDS011;6549;53.128;8.182;2023-04-16T09:57:05;20.17;;;13.90;;
12968;SDS011;6549;53.128;8.182;2023-04-16T10:00:06;19.67;;;14.70;;
12968;SDS011;6549;53.128;8.182;2023-04-16T10:03:08;18.70;;;13.85;;
12968;SDS011;6549;53.128;8.182;2023-04-16T10:06:16;19.63;;;13.60;;
12968;SDS011;6549;53.128;8.182;2023-04-16T10:09:18;20.05;;;13.82;;
12968;SDS011;6549;53.128;8.182;2023-04-16T10:12:19;17.52;;;13.40;;
12968;SDS011;6549;53.128;8.182;2023-04-16T10:15:19;16.77;;;13.40;;
12968;SDS011;6549;53.128;8.182;2023-04-16T10:18:20;20.58;;;14.13;;
12968;SDS011;6549;53.128;8.182;2023-04-16T10:21:22;19.88;;;13.73;;
12968;SDS011;6549;53.128;8.182;2023-04-16T10:24:23;17.75;;;12.70;;
12968;SDS011;6549;53.128;8.182;2023-04-16T10:27:25;20.63;;;13.75;;
12968;SDS011;6549;53.128;8.182;2023-04-16T10:30:26;18.77;;;14.07;;
12968;SDS011;6549;53.128;8.182;2023-04-16T10:33:38;15.73;;;12.18;;
12968;SDS011;6549;53.128;8.182;2023-04-16T10:36:39;16.48;;;12.02;;
12968;SDS011;6549;53.128;8.182;2023-04-16T10:39:40;15.80;;;11.85;;
12968;SDS011;6549;53.128;8.182;2023-04-16T10:42:40;17.42;;;12.10;;
12968;SDS011;6549;53.128;8.182;2023-04-16T10:45:40;17.67;;;14.23;;
12968;SDS011;6549;53.128;8.182;2023-04-16T10:48:41;15.30;;;11.75;;
12968;SDS011;6549;53.128;8.182;2023-04-16T10:51:41;18.85;;;12.32;;
12968;SDS011;6549;53.128;8.182;2023-04-16T10:54:50;15.10;;;12.18;;
12968;SDS011;6549;53.128;8.182;2023-04-16T10:57:51;17.70;;;12.32;;
12968;SDS011;6549;53.128;8.182;2023-04-16T11:00:52;14.80;;;10.80;;
12968;SDS011;6549;53.128;8.182;2023-04-16T11:03:53;16.08;;;12.38;;
12968;SDS011;6549;53.128;8.182;2023-04-16T11:10:04;17.35;;;11.70;;
12968;SDS011;6549;53.128;8.182;2023-04-16T11:13:06;14.43;;;11.10;;
12968;SDS011;6549;53.128;8.182;2023-04-16T11:16:06;15.48;;;11.20;;
12968;SDS011;6549;53.128;8.182;2023-04-16T11:19:07;16.08;;;12.25;;
12968;SDS011;6549;53.128;8.182;2023-04-16T11:22:15;15.85;;;11.25;;
12968;SDS011;6549;53.128;8.182;2023-04-16T11:25:23;12.98;;;10.32;;
12968;SDS011;6549;53.128;8.182;2023-04-16T11:28:32;14.90;;;10.90;;
12968;SDS011;6549;53.128;8.182;2023-04-16T11:31:33;15.30;;;11.20;;
12968;SDS011;6549;53.128;8.182;2023-04-16T11:34:43;16.17;;;11.18;;
12968;SDS011;6549;53.128;8.182;2023-04-16T11:38:31;18.08;;;13.43;;
12968;SDS011;6549;53.128;8.182;2023-04-16T11:41:32;14.70;;;11.18;;
12968;SDS011;6549;53.128;8.182;2023-04-16T11:44:32;13.73;;;10.43;;
12968;SDS011;6549;53.128;8.182;2023-04-16T11:47:41;14.80;;;11.25;;
12968;SDS011;6549;53.128;8.182;2023-04-16T11:50:43;14.82;;;11.00;;
12968;SDS011;6549;53.128;8.182;2023-04-16T11:53:53;12.82;;;9.95;;
12968;SDS011;6549;53.128;8.182;2023-04-16T11:56:54;17.27;;;11.48;;
12968;SDS011;6549;53.128;8.182;2023-04-16T11:59:55;16.23;;;11.90;;
12968;SDS011;6549;53.128;8.182;2023-04-16T12:02:56;14.95;;;10.77;;
12968;SDS011;6549;53.128;8.182;2023-04-16T12:06:05;15.23;;;11.15;;
12968;SDS011;6549;53.128;8.182;2023-04-16T12:09:25;13.40;;;11.32;;
12968;SDS011;6549;53.128;8.182;2023-04-16T12:12:26;14.30;;;11.45;;
12968;SDS011;6549;53.128;8.182;2023-04-16T12:15:41;16.25;;;10.98;;
12968;SDS011;6549;53.128;8.182;2023-04-16T12:18:59;14.20;;;10.93;;
12968;SDS011;6549;53.128;8.182;2023-04-16T12:22:03;14.63;;;10.98;;
12968;SDS011;6549;53.128;8.182;2023-04-16T12:25:05;14.07;;;10.82;;
12968;SDS011;6549;53.128;8.182;2023-04-16T12:28:25;16.20;;;11.25;;
12968;SDS011;6549;53.128;8.182;2023-04-16T12:31:36;14.45;;;11.55;;
12968;SDS011;6549;53.128;8.182;2023-04-16T12:34:48;15.75;;;11.55;;
12968;SDS011;6549;53.128;8.182;2023-04-16T12:37:50;15.88;;;11.02;;
12968;SDS011;6549;53.128;8.182;2023-04-16T12:40:50;12.85;;;10.32;;
12968;SDS011;6549;53.128;8.182;2023-04-16T12:43:51;13.82;;;9.98;;
12968;SDS011;6549;53.128;8.182;2023-04-16T12:46:51;12.77;;;10.48;;
12968;SDS011;6549;53.128;8.182;2023-04-16T12:49:52;15.68;;;10.35;;
12968;SDS011;6549;53.128;8.182;2023-04-16T12:52:52;12.50;;;9.65;;
12968;SDS011;6549;53.128;8.182;2023-04-16T12:55:52;12.02;;;10.40;;
12968;SDS011;6549;53.128;8.182;2023-04-16T12:58:53;15.75;;;10.88;;
12968;SDS011;6549;53.128;8.182;2023-04-16T13:01:53;15.25;;;9.20;;
12968;SDS011;6549;53.128;8.182;2023-04-16T13:04:53;11.38;;;8.77;;
12968;SDS011;6549;53.128;8.182;2023-04-16T13:07:54;13.18;;;9.70;;
12968;SDS011;6549;53.128;8.182;2023-04-16T13:10:54;13.02;;;9.93;;
12968;SDS011;6549;53.128;8.182;2023-04-16T13:13:55;12.95;;;9.35;;
12968;SDS011;6549;53.128;8.182;2023-04-16T13:16:55;12.15;;;9.18;;
12968;SDS011;6549;53.128;8.182;2023-04-16T13:19:55;11.63;;;8.88;;
12968;SDS011;6549;53.128;8.182;2023-04-16T13:22:56;12.35;;;9.02;;
12968;SDS011;6549;53.128;8.182;2023-04-16T13:25:56;11.50;;;8.85;;
12968;SDS011;6549;53.128;8.182;2023-04-16T13:28:56;13.25;;;9.48;;
12968;SDS011;6549;53.128;8.182;2023-04-16T13:31:57;11.07;;;9.27;;
12968;SDS011;6549;53.128;8.182;2023-04-16T13:34:57;13.95;;;9.73;;
12968;SDS011;6549;53.128;8.182;2023-04-16T13:38:00;15.98;;;9.10;;
12968;SDS011;6549;53.128;8.182;2023-04-16T13:41:01;15.77;;;10.15;;
12968;SDS011;6549;53.128;8.182;2023-04-16T13:44:01;13.77;;;10.15;;
12968;SDS011;6549;53.128;8.182;2023-04-16T13:47:01;12.43;;;9.95;;
12968;SDS011;6549;53.128;8.182;2023-04-16T13:50:02;13.40;;;10.23;;
12968;SDS011;6549;53.128;8.182;2023-04-16T13:53:02;13.88;;;10.27;;
12968;SDS011;6549;53.128;8.182;2023-04-16T13:56:04;14.20;;;11.13;;
12968;SDS011;6549;53.128;8.182;2023-04-16T13:59:04;14.18;;;10.23;;
12968;SDS011;6549;53.128;8.182;2023-04-16T14:02:04;14.35;;;11.30;;
12968;SDS011;6549;53.128;8.182;2023-04-16T14:05:05;14.52;;;10.23;;
12968;SDS011;6549;53.128;8.182;2023-04-16T14:08:05;12.43;;;9.57;;
12968;SDS011;6549;53.128;8.182;2023-04-16T14:11:06;13.68;;;9.73;;
12968;SDS011;6549;53.128;8.182;2023-04-16T14:14:08;11.27;;;9.07;;
12968;SDS011;6549;53.128;8.182;2023-04-16T14:17:08;13.88;;;9.73;;
12968;SDS011;6549;53.128;8.182;2023-04-16T14:20:09;10.75;;;9.02;;
12968;SDS011;6549;53.128;8.182;2023-04-16T14:23:11;10.57;;;8.45;;
12968;SDS011;6549;53.128;8.182;2023-04-16T14:26:11;14.40;;;9.02;;
12968;SDS011;6549;53.128;8.182;2023-04-16T14:29:12;10.95;;;8.82;;
12968;SDS011;6549;53.128;8.182;2023-04-16T14:32:12;10.15;;;8.38;;
12968;SDS011;6549;53.128;8.182;2023-04-16T14:35:12;15.02;;;8.57;;
12968;SDS011;6549;53.128;8.182;2023-04-16T14:38:13;11.52;;;9.35;;
12968;SDS011;6549;53.128;8.182;2023-04-16T14:41:13;10.07;;;7.60;;
12968;SDS011;6549;53.128;8.182;2023-04-16T14:44:13;10.52;;;7.30;;
12968;SDS011;6549;53.128;8.182;2023-04-16T14:47:14;9.55;;;7.78;;
12968;SDS011;6549;53.128;8.182;2023-04-16T14:50:14;11.90;;;8.27;;
12968;SDS011;6549;53.128;8.182;2023-04-16T14:53:15;9.80;;;7.30;;
12968;SDS011;6549;53.128;8.182;2023-04-16T14:56:15;9.38;;;7.20;;
12968;SDS011;6549;53.128;8.182;2023-04-16T14:59:16;9.85;;;7.88;;
12968;SDS011;6549;53.128;8.182;2023-04-16T15:02:16;9.15;;;6.18;;
12968;SDS011;6549;53.128;8.182;2023-04-16T15:05:16;10.48;;;8.18;;
12968;SDS011;6549;53.128;8.182;2023-04-16T15:08:17;6.28;;;4.72;;
12968;SDS011;6549;53.128;8.182;2023-04-16T15:11:17;7.95;;;6.07;;
12968;SDS011;6549;53.128;8.182;2023-04-16T15:14:17;10.13;;;7.72;;
12968;SDS011;6549;53.128;8.182;2023-04-16T15:17:18;10.40;;;7.70;;
12968;SDS011;6549;53.128;8.182;2023-04-16T15:20:19;10.02;;;7.10;;
12968;SDS011;6549;53.128;8.182;2023-04-16T15:23:19;11.13;;;8.13;;
12968;SDS011;6549;53.128;8.182;2023-04-16T15:26:20;10.02;;;8.23;;
12968;SDS011;6549;53.128;8.182;2023-04-16T15:29:20;10.90;;;8.55;;
12968;SDS011;6549;53.128;8.182;2023-04-16T15:32:20;11.63;;;8.90;;
12968;SDS011;6549;53.128;8.182;2023-04-16T15:35:21;11.85;;;8.02;;
12968;SDS011;6549;53.128;8.182;2023-04-16T15:38:21;9.63;;;8.23;;
12968;SDS011;6549;53.128;8.182;2023-04-16T15:41:23;12.05;;;9.27;;
12968;SDS011;6549;53.128;8.182;2023-04-16T15:44:23;14.23;;;9.00;;
12968;SDS011;6549;53.128;8.182;2023-04-16T15:47:24;13.70;;;9.98;;
12968;SDS011;6549;53.128;8.182;2023-04-16T15:50:24;12.57;;;9.32;;
12968;SDS011;6549;53.128;8.182;2023-04-16T15:53:25;14.20;;;10.45;;
12968;SDS011;6549;53.128;8.182;2023-04-16T15:56:25;15.85;;;10.07;;
12968;SDS011;6549;53.128;8.182;2023-04-16T15:59:26;12.48;;;9.75;;
12968;SDS011;6549;53.128;8.182;2023-04-16T16:02:26;13.00;;;9.50;;
12968;SDS011;6549;53.128;8.182;2023-04-16T16:05:28;14.38;;;10.25;;
12968;SDS011;6549;53.128;8.182;2023-04-16T16:08:29;14.23;;;10.18;;
12968;SDS011;6549;53.128;8.182;2023-04-16T16:11:33;15.80;;;11.25;;
12968;SDS011;6549;53.128;8.182;2023-04-16T16:14:33;14.35;;;9.93;;
12968;SDS011;6549;53.128;8.182;2023-04-16T16:17:34;14.10;;;10.23;;
12968;SDS011;6549;53.128;8.182;2023-04-16T16:20:35;12.93;;;10.25;;
12968;SDS011;6549;53.128;8.182;2023-04-16T16:23:35;13.63;;;9.77;;
12968;SDS011;6549;53.128;8.182;2023-04-16T16:26:35;13.25;;;10.10;;
12968;SDS011;6549;53.128;8.182;2023-04-16T16:29:36;14.38;;;10.25;;
12968;SDS011;6549;53.128;8.182;2023-04-16T16:32:39;14.07;;;10.80;;
12968;SDS011;6549;53.128;8.182;2023-04-16T16:35:41;14.45;;;11.30;;
12968;SDS011;6549;53.128;8.182;2023-04-16T16:38:42;15.38;;;11.10;;
12968;SDS011;6549;53.128;8.182;2023-04-16T16:41:45;15.00;;;11.32;;
12968;SDS011;6549;53.128;8.182;2023-04-16T16:44:51;16.30;;;12.75;;
12968;SDS011;6549;53.128;8.182;2023-04-16T16:47:51;17.70;;;12.63;;
12968;SDS011;6549;53.128;8.182;2023-04-16T16:50:51;16.65;;;12.93;;
12968;SDS011;6549;53.128;8.182;2023-04-16T16:53:52;19.05;;;14.25;;
12968;SDS011;6549;53.128;8.182;2023-04-16T16:56:52;20.13;;;14.55;;
12968;SDS011;6549;53.128;8.182;2023-04-16T16:59:52;18.88;;;14.93;;
12968;SDS011;6549;53.128;8.182;2023-04-16T17:02:55;23.85;;;16.55;;
12968;SDS011;6549;53.128;8.182;2023-04-16T17:05:56;23.55;;;18.02;;
12968;SDS011;6549;53.128;8.182;2023-04-16T17:08:56;23.75;;;18.63;;
12968;SDS011;6549;53.128;8.182;2023-04-16T17:11:56;24.70;;;19.17;;
12968;SDS011;6549;53.128;8.182;2023-04-16T17:14:57;23.52;;;18.95;;
12968;SDS011;6549;53.128;8.182;2023-04-16T17:17:57;25.75;;;20.40;;
12968;SDS011;6549;53.128;8.182;2023-04-16T17:20:57;26.15;;;19.65;;
12968;SDS011;6549;53.128;8.182;2023-04-16T17:23:58;26.08;;;20.35;;
12968;SDS011;6549;53.128;8.182;2023-04-16T17:26:58;26.35;;;21.70;;
12968;SDS011;6549;53.128;8.182;2023-04-16T17:29:59;26.88;;;20.85;;
12968;SDS011;6549;53.128;8.182;2023-04-16T17:33:00;31.65;;;23.00;;
12968;SDS011;6549;53.128;8.182;2023-04-16T17:36:03;28.75;;;22.90;;
12968;SDS011;6549;53.128;8.182;2023-04-16T17:39:04;29.25;;;23.73;;
12968;SDS011;6549;53.128;8.182;2023-04-16T17:42:04;30.08;;;24.60;;
12968;SDS011;6549;53.128;8.182;2023-04-16T17:45:04;30.58;;;24.77;;
12968;SDS011;6549;53.128;8.182;2023-04-16T17:48:05;31.58;;;25.60;;
12968;SDS011;6549;53.128;8.182;2023-04-16T17:51:12;32.70;;;25.67;;
12968;SDS011;6549;53.128;8.182;2023-04-16T17:54:15;32.13;;;24.45;;
12968;SDS011;6549;53.128;8.182;2023-04-16T17:57:15;29.67;;;23.98;;
12968;SDS011;6549;53.128;8.182;2023-04-16T18:00:16;30.08;;;23.23;;
12968;SDS011;6549;53.128;8.182;2023-04-16T18:03:16;29.90;;;24.15;;